createdAt,value
2022-11-30T00:01:32.460Z,9.97
2022-11-30T00:04:00.203Z,9.00
2022-11-30T00:06:27.982Z,9.83
2022-11-30T00:08:56.212Z,10.70
2022-11-30T00:11:25.707Z,9.13
2022-11-30T00:13:53.953Z,9.70
2022-11-30T00:16:23.784Z,10.43
2022-11-30T00:18:51.837Z,10.80
2022-11-30T00:21:19.664Z,12.43
2022-11-30T00:23:48.537Z,8.90
2022-11-30T00:26:18.147Z,9.07
2022-11-30T00:28:47.541Z,9.10
2022-11-30T00:31:17.461Z,10.17
2022-11-30T00:33:47.103Z,9.20
2022-11-30T00:36:16.572Z,8.63
2022-11-30T00:38:45.021Z,11.23
2022-11-30T00:41:13.376Z,9.73
2022-11-30T00:43:41.292Z,9.27
2022-11-30T00:46:10.150Z,10.93
2022-11-30T00:48:38.015Z,12.07
2022-11-30T00:51:08.855Z,9.97
2022-11-30T00:53:37.816Z,9.67
2022-11-30T00:56:06.296Z,9.10
2022-11-30T00:58:34.082Z,8.70
2022-11-30T01:01:01.972Z,10.80
2022-11-30T01:03:29.827Z,11.60
2022-11-30T01:06:03.043Z,11.83
2022-11-30T01:08:32.308Z,10.73
2022-11-30T01:11:06.773Z,10.37
2022-11-30T01:13:34.606Z,10.13
2022-11-30T01:16:02.406Z,10.50
2022-11-30T01:18:30.149Z,8.93
2022-11-30T01:20:58.007Z,9.33
2022-11-30T01:23:25.787Z,13.20
2022-11-30T01:25:57.882Z,10.00
2022-11-30T01:28:25.645Z,9.13
2022-11-30T01:31:00.920Z,9.53
2022-11-30T01:33:29.109Z,11.70
2022-11-30T01:36:01.259Z,10.17
2022-11-30T01:38:32.194Z,8.87
2022-11-30T01:41:01.407Z,9.43
2022-11-30T01:43:40.122Z,9.90
2022-11-30T01:46:22.048Z,10.70
2022-11-30T01:48:56.626Z,9.07
2022-11-30T01:51:24.461Z,11.30
2022-11-30T01:53:52.940Z,9.10
2022-11-30T01:56:22.052Z,9.43
2022-11-30T01:58:50.639Z,8.40
2022-11-30T02:01:18.491Z,10.33
2022-11-30T02:03:53.440Z,9.27
2022-11-30T02:06:21.824Z,7.73
2022-11-30T02:08:49.559Z,10.13
2022-11-30T02:11:17.477Z,10.87
2022-11-30T02:14:03.222Z,10.37
2022-11-30T02:16:37.967Z,9.00
2022-11-30T02:19:25.919Z,10.13
2022-11-30T02:22:00.754Z,9.50
2022-11-30T02:24:43.759Z,10.87
2022-11-30T02:27:21.925Z,11.73
2022-11-30T02:29:56.220Z,11.60
2022-11-30T02:32:29.752Z,9.67
2022-11-30T02:35:00.269Z,9.53
2022-11-30T02:37:29.606Z,9.73
2022-11-30T02:39:58.758Z,10.20
2022-11-30T02:42:26.553Z,8.37
2022-11-30T02:44:55.812Z,10.13
2022-11-30T02:47:29.041Z,10.03
2022-11-30T02:50:01.425Z,10.63
2022-11-30T02:52:31.268Z,10.23
2022-11-30T02:55:02.515Z,9.50
2022-11-30T02:57:30.823Z,9.37
2022-11-30T03:00:01.216Z,11.43
2022-11-30T03:02:29.169Z,9.43
2022-11-30T03:04:56.903Z,9.50
2022-11-30T03:07:24.664Z,9.13
2022-11-30T03:09:52.419Z,9.70
2022-11-30T03:12:20.159Z,9.60
2022-11-30T03:14:48.149Z,10.00
2022-11-30T03:17:17.415Z,8.97
2022-11-30T03:19:45.287Z,8.90
2022-11-30T03:22:13.155Z,8.67
2022-11-30T03:24:40.899Z,11.23
2022-11-30T03:27:08.613Z,9.73
2022-11-30T03:29:36.380Z,9.47
2022-11-30T03:32:04.433Z,9.93
2022-11-30T03:34:33.648Z,10.57
2022-11-30T03:37:01.400Z,9.00
2022-11-30T03:39:29.173Z,11.47
2022-11-30T03:41:56.971Z,9.53
2022-11-30T03:44:24.704Z,11.77
2022-11-30T03:46:52.493Z,10.77
2022-11-30T03:49:20.245Z,10.77
2022-11-30T03:51:49.381Z,10.87
2022-11-30T03:54:17.407Z,11.40
2022-11-30T03:56:45.126Z,11.27
2022-11-30T03:59:12.834Z,10.30
2022-11-30T04:01:41.499Z,9.20
2022-11-30T04:04:09.432Z,8.83
2022-11-30T04:06:37.195Z,11.00
2022-11-30T04:09:06.316Z,10.63
2022-11-30T04:11:35.938Z,12.37
2022-11-30T04:14:03.740Z,10.57
2022-11-30T04:16:31.568Z,11.63
2022-11-30T04:18:59.492Z,10.63
2022-11-30T04:21:28.388Z,10.90
2022-11-30T04:23:56.367Z,12.23
2022-11-30T04:26:25.832Z,9.67
2022-11-30T04:28:53.661Z,11.93
2022-11-30T04:31:21.691Z,10.50
2022-11-30T04:33:49.525Z,9.37
2022-11-30T04:36:20.112Z,12.43
2022-11-30T04:38:48.803Z,10.13
2022-11-30T04:41:16.881Z,9.57
2022-11-30T04:43:46.197Z,9.80
2022-11-30T04:46:13.988Z,10.67
2022-11-30T04:48:41.789Z,10.90
2022-11-30T04:51:10.119Z,10.37
2022-11-30T04:53:39.254Z,9.67
2022-11-30T04:56:07.967Z,11.70
2022-11-30T04:58:36.126Z,10.73
2022-11-30T05:01:05.611Z,11.70
2022-11-30T05:03:33.309Z,10.13
2022-11-30T05:06:01.046Z,10.33
2022-11-30T05:08:28.857Z,9.63
2022-11-30T05:10:56.879Z,10.40
2022-11-30T05:13:26.281Z,12.13
2022-11-30T05:15:54.573Z,10.73
2022-11-30T05:18:24.090Z,11.57
2022-11-30T05:20:53.527Z,9.67
2022-11-30T05:23:22.327Z,9.17
2022-11-30T05:25:50.481Z,10.63
2022-11-30T05:28:18.336Z,9.87
2022-11-30T05:30:46.152Z,9.20
2022-11-30T05:33:15.197Z,8.83
2022-11-30T05:35:44.559Z,9.00
2022-11-30T05:38:12.469Z,10.80
2022-11-30T05:40:40.217Z,10.33
2022-11-30T05:43:08.090Z,9.30
2022-11-30T05:45:35.862Z,9.60
2022-11-30T05:48:03.607Z,10.77
2022-11-30T05:50:31.366Z,12.00
2022-11-30T05:53:00.962Z,8.93
2022-11-30T05:55:29.877Z,8.73
2022-11-30T05:57:57.704Z,9.37
2022-11-30T06:00:25.404Z,8.00
2022-11-30T06:02:57.234Z,9.73
2022-11-30T06:05:25.326Z,9.47
2022-11-30T06:07:53.821Z,9.57
2022-11-30T06:10:25.161Z,8.40
2022-11-30T06:12:53.099Z,9.70
2022-11-30T06:15:23.601Z,9.03
2022-11-30T06:17:51.408Z,9.53
2022-11-30T06:20:19.300Z,9.87
2022-11-30T06:22:50.381Z,10.03
2022-11-30T06:25:19.273Z,8.13
2022-11-30T06:27:48.465Z,9.67
2022-11-30T06:30:18.473Z,8.40
2022-11-30T06:32:46.367Z,9.50
2022-11-30T06:35:14.228Z,9.53
2022-11-30T06:37:42.252Z,10.07
2022-11-30T06:40:12.444Z,8.80
2022-11-30T06:42:40.351Z,9.93
2022-11-30T06:45:10.713Z,9.90
2022-11-30T06:47:38.958Z,9.57
2022-11-30T06:50:08.838Z,8.53
2022-11-30T06:52:36.617Z,9.57
2022-11-30T06:55:04.677Z,8.47
2022-11-30T06:57:32.422Z,10.07
2022-11-30T07:00:00.183Z,9.13
2022-11-30T07:02:29.421Z,10.03
2022-11-30T07:04:57.082Z,10.83
2022-11-30T07:07:25.124Z,9.70
2022-11-30T07:09:53.118Z,9.17
2022-11-30T07:12:20.828Z,9.77
2022-11-30T07:14:52.263Z,10.33
2022-11-30T07:17:20.110Z,10.23
2022-11-30T07:19:49.278Z,8.57
2022-11-30T07:22:17.515Z,9.40
2022-11-30T07:25:03.063Z,9.80
2022-11-30T07:27:30.821Z,8.33
2022-11-30T07:29:58.519Z,7.03
2022-11-30T07:32:26.250Z,7.97
2022-11-30T07:34:55.289Z,6.67
2022-11-30T07:37:23.104Z,7.53
2022-11-30T07:39:50.853Z,7.73
2022-11-30T07:42:18.578Z,9.07
2022-11-30T07:44:46.650Z,8.77
2022-11-30T07:47:14.834Z,9.20
2022-11-30T07:49:42.671Z,7.33
2022-11-30T07:52:11.807Z,8.77
2022-11-30T07:54:39.530Z,8.77
2022-11-30T07:57:07.255Z,8.23
2022-11-30T07:59:34.965Z,7.53
2022-11-30T08:02:02.886Z,8.27
2022-11-30T08:04:30.795Z,7.27
2022-11-30T08:06:58.997Z,9.10
2022-11-30T08:09:28.082Z,7.53
2022-11-30T08:11:56.046Z,6.50
2022-11-30T08:14:23.833Z,7.77
2022-11-30T08:16:51.753Z,7.93
2022-11-30T08:19:19.806Z,8.17
2022-11-30T08:21:47.817Z,6.60
2022-11-30T08:24:15.927Z,7.03
2022-11-30T08:26:45.905Z,6.10
2022-11-30T08:29:13.636Z,6.77
2022-11-30T08:31:41.393Z,7.17
2022-11-30T08:34:12.829Z,6.33
2022-11-30T08:36:41.575Z,6.67
2022-11-30T08:39:12.361Z,7.37
2022-11-30T08:41:40.152Z,7.13
2022-11-30T08:44:09.285Z,7.00
2022-11-30T08:46:53.240Z,6.03
2022-11-30T08:49:23.400Z,4.77
2022-11-30T08:54:42.632Z,6.70
2022-11-30T08:57:10.494Z,5.83
2022-11-30T08:59:39.631Z,6.70
2022-11-30T09:02:07.720Z,6.97
2022-11-30T09:04:35.678Z,6.60
2022-11-30T09:07:03.918Z,7.13
2022-11-30T09:09:31.878Z,6.33
2022-11-30T09:11:59.652Z,6.53
2022-11-30T09:14:27.748Z,6.13
2022-11-30T09:16:56.855Z,6.47
2022-11-30T09:19:25.709Z,6.40
2022-11-30T09:21:53.721Z,6.57
2022-11-30T09:24:21.805Z,4.63
2022-11-30T09:26:49.593Z,5.97
2022-11-30T09:29:17.504Z,6.20
2022-11-30T09:31:45.233Z,7.03
2022-11-30T09:34:14.386Z,5.27
2022-11-30T09:36:42.158Z,7.47
2022-11-30T09:39:12.739Z,6.67
2022-11-30T09:42:09.084Z,6.53
2022-11-30T09:44:47.921Z,5.70
2022-11-30T09:47:32.317Z,8.13
2022-11-30T09:50:05.798Z,5.77
2022-11-30T09:52:37.958Z,5.87
2022-11-30T09:55:10.241Z,5.73
2022-11-30T09:57:44.986Z,6.13
2022-11-30T10:00:16.898Z,7.30
2022-11-30T10:02:45.076Z,6.63
2022-11-30T10:05:20.925Z,6.70
2022-11-30T10:08:09.491Z,5.27
2022-11-30T10:10:41.694Z,5.67
2022-11-30T10:13:23.810Z,5.83
2022-11-30T10:16:08.245Z,6.17
2022-11-30T10:18:52.692Z,5.90
2022-11-30T10:21:38.847Z,5.97
2022-11-30T10:24:16.204Z,5.67
2022-11-30T10:26:49.891Z,6.07
2022-11-30T10:29:20.840Z,6.30
2022-11-30T10:31:52.188Z,6.57
2022-11-30T10:34:22.716Z,6.10
2022-11-30T10:36:55.880Z,6.37
2022-11-30T10:39:27.513Z,6.90
2022-11-30T10:42:01.990Z,6.53
2022-11-30T10:44:33.011Z,6.60
2022-11-30T10:47:03.815Z,5.40
2022-11-30T10:49:34.633Z,6.27
2022-11-30T10:52:08.275Z,6.57
2022-11-30T10:54:37.238Z,6.83
2022-11-30T10:57:07.444Z,7.53
2022-11-30T10:59:41.767Z,7.67
2022-11-30T11:02:34.535Z,6.37
2022-11-30T11:05:18.203Z,8.07
2022-11-30T11:07:51.075Z,6.60
2022-11-30T11:10:21.166Z,7.40
2022-11-30T11:12:51.238Z,6.97
2022-11-30T11:15:21.633Z,6.27
2022-11-30T11:17:49.810Z,8.40
2022-11-30T11:20:33.721Z,6.23
2022-11-30T11:23:03.868Z,6.87
2022-11-30T11:25:36.748Z,7.87
2022-11-30T11:28:09.041Z,6.53
2022-11-30T11:30:38.514Z,7.07
2022-11-30T11:33:21.060Z,7.03
2022-11-30T11:35:50.552Z,6.43
2022-11-30T11:38:30.264Z,5.63
2022-11-30T11:41:02.383Z,5.60
2022-11-30T11:43:34.587Z,7.13
2022-11-30T11:46:11.175Z,6.80
2022-11-30T11:48:42.352Z,7.43
2022-11-30T11:51:11.858Z,9.13
2022-11-30T11:53:53.395Z,7.03
2022-11-30T11:56:26.463Z,7.83
2022-11-30T11:58:59.563Z,7.73
2022-11-30T12:01:41.469Z,7.73
2022-11-30T12:04:24.752Z,7.67
2022-11-30T12:06:58.841Z,7.13
2022-11-30T12:09:32.315Z,7.20
2022-11-30T12:12:00.413Z,7.27
2022-11-30T12:14:29.004Z,7.53
2022-11-30T12:17:22.211Z,6.90
2022-11-30T12:19:58.039Z,7.63
2022-11-30T12:22:44.156Z,6.57
2022-11-30T12:25:22.993Z,6.57
2022-11-30T12:28:00.284Z,5.00
2022-11-30T12:30:33.104Z,6.90
2022-11-30T12:33:11.784Z,7.70
2022-11-30T12:35:56.126Z,7.93
2022-11-30T12:38:33.777Z,7.20
2022-11-30T12:41:14.673Z,7.60
2022-11-30T12:43:49.809Z,5.83
2022-11-30T12:46:24.960Z,6.70
2022-11-30T12:49:17.446Z,8.70
2022-11-30T12:51:51.875Z,6.80
2022-11-30T12:54:27.829Z,7.87
2022-11-30T12:57:02.972Z,6.93
2022-11-30T12:59:41.777Z,8.03
2022-11-30T13:02:31.730Z,7.27
2022-11-30T13:05:03.512Z,7.20
2022-11-30T13:07:37.286Z,8.20
2022-11-30T13:10:17.720Z,7.97
2022-11-30T13:12:51.642Z,7.50
2022-11-30T13:15:22.919Z,8.17
2022-11-30T13:17:51.762Z,7.80
2022-11-30T13:20:24.798Z,8.07
2022-11-30T13:23:00.287Z,7.93
2022-11-30T13:26:06.862Z,8.07
2022-11-30T13:28:36.900Z,7.17
2022-11-30T13:31:09.057Z,8.40
2022-11-30T13:33:48.657Z,7.73
2022-11-30T13:36:28.147Z,9.90
2022-11-30T13:39:26.884Z,9.10
2022-11-30T13:42:21.322Z,8.77
2022-11-30T13:44:50.766Z,9.87
2022-11-30T13:47:20.990Z,8.20
2022-11-30T13:49:56.972Z,9.07
2022-11-30T13:52:58.230Z,10.20
2022-11-30T13:55:51.239Z,9.57
2022-11-30T13:58:20.307Z,8.90
2022-11-30T14:01:06.453Z,11.97
2022-11-30T14:03:34.460Z,8.63
2022-11-30T14:06:28.570Z,8.63
2022-11-30T14:08:58.042Z,9.60
2022-11-30T14:11:41.812Z,9.33
2022-11-30T14:14:45.080Z,8.50
2022-11-30T14:17:20.197Z,9.50
2022-11-30T14:19:51.267Z,8.63
2022-11-30T14:22:19.618Z,9.97
2022-11-30T14:24:50.444Z,8.23
2022-11-30T14:27:21.963Z,11.13
2022-11-30T14:29:54.220Z,10.67
2022-11-30T14:32:43.433Z,11.13
2022-11-30T14:35:14.599Z,9.40
2022-11-30T14:37:45.552Z,9.77
2022-11-30T14:40:20.177Z,11.20
2022-11-30T14:42:51.002Z,8.97
2022-11-30T14:45:21.570Z,9.50
2022-11-30T14:47:52.668Z,11.03
2022-11-30T14:50:24.874Z,10.83
2022-11-30T14:53:03.770Z,8.90
2022-11-30T14:55:40.647Z,12.27
2022-11-30T14:58:32.312Z,9.50
2022-11-30T15:01:00.716Z,11.27
2022-11-30T15:03:37.362Z,11.33
2022-11-30T15:06:08.690Z,11.00
2022-11-30T15:08:40.715Z,9.70
2022-11-30T15:11:12.595Z,12.63
2022-11-30T15:13:42.655Z,11.10
2022-11-30T15:16:15.548Z,11.13
2022-11-30T15:18:43.322Z,9.57
2022-11-30T15:21:17.368Z,10.53
2022-11-30T15:23:50.697Z,9.97
2022-11-30T15:26:25.772Z,10.30
2022-11-30T15:28:58.573Z,11.27
2022-11-30T15:31:30.033Z,10.00
2022-11-30T15:33:57.861Z,8.60
2022-11-30T15:36:34.398Z,10.07
2022-11-30T15:39:05.085Z,10.03
2022-11-30T15:41:36.096Z,7.50
2022-11-30T15:44:03.852Z,10.07
2022-11-30T15:46:34.335Z,6.80
2022-11-30T15:49:07.932Z,7.93
2022-11-30T15:51:39.885Z,9.23
2022-11-30T15:54:07.944Z,11.30
2022-11-30T15:56:37.051Z,10.67
2022-11-30T15:59:07.014Z,10.27
2022-11-30T16:02:01.757Z,11.27
2022-11-30T16:04:30.738Z,9.80
2022-11-30T16:06:58.688Z,10.07
2022-11-30T16:09:32.365Z,9.30
2022-11-30T16:12:02.953Z,9.87
2022-11-30T16:14:31.037Z,9.23
2022-11-30T16:17:01.637Z,8.87
2022-11-30T16:19:33.322Z,8.47
2022-11-30T16:22:01.047Z,10.00
2022-11-30T16:24:28.957Z,11.87
2022-11-30T16:26:56.725Z,10.33
2022-11-30T16:29:25.766Z,10.10
2022-11-30T16:31:53.562Z,11.57
2022-11-30T16:34:21.278Z,7.77
2022-11-30T16:36:49.122Z,9.77
2022-11-30T16:39:17.069Z,10.13
2022-11-30T16:41:45.083Z,11.70
2022-11-30T16:44:14.916Z,10.60
2022-11-30T16:46:43.971Z,10.63
2022-11-30T16:49:11.768Z,8.93
2022-11-30T16:51:41.812Z,9.33
2022-11-30T16:54:12.219Z,12.17
2022-11-30T16:56:40.049Z,9.57
2022-11-30T16:59:10.893Z,9.37
2022-11-30T17:01:46.286Z,9.83
2022-11-30T17:04:18.710Z,10.23
2022-11-30T17:06:50.265Z,8.20
2022-11-30T17:09:19.919Z,8.77
2022-11-30T17:11:50.276Z,9.00
2022-11-30T17:14:18.794Z,8.33
2022-11-30T17:16:47.956Z,8.03
2022-11-30T17:19:15.703Z,10.07
2022-11-30T17:21:44.668Z,11.90
2022-11-30T17:24:13.397Z,9.30
2022-11-30T17:26:41.515Z,9.07
2022-11-30T17:29:09.428Z,9.70
2022-11-30T17:31:37.162Z,8.90
2022-11-30T17:34:08.463Z,8.97
2022-11-30T17:36:36.151Z,7.43
2022-11-30T17:39:06.418Z,10.27
2022-11-30T17:41:34.201Z,11.97
2022-11-30T17:44:02.693Z,7.93
2022-11-30T17:46:30.517Z,10.50
2022-11-30T17:48:58.459Z,7.77
2022-11-30T17:51:28.012Z,10.30
2022-11-30T17:53:55.971Z,8.47
2022-11-30T17:56:26.211Z,9.50
2022-11-30T17:58:53.919Z,9.63
2022-11-30T18:01:23.405Z,10.60
2022-11-30T18:03:52.149Z,10.87
2022-11-30T18:06:20.605Z,10.43
2022-11-30T18:08:49.852Z,11.17
2022-11-30T18:11:20.782Z,10.07
2022-11-30T18:13:49.873Z,12.83
2022-11-30T18:16:19.776Z,12.93
2022-11-30T18:18:48.617Z,12.13
2022-11-30T18:21:18.985Z,12.73
2022-11-30T18:23:48.869Z,13.10
2022-11-30T18:26:20.129Z,12.40
2022-11-30T18:28:51.671Z,12.43
2022-11-30T18:31:19.525Z,14.00
2022-11-30T18:33:47.335Z,13.90
2022-11-30T18:36:15.180Z,12.63
2022-11-30T18:38:43.929Z,12.77
2022-11-30T18:41:11.740Z,14.00
2022-11-30T18:43:40.775Z,12.97
2022-11-30T18:46:10.049Z,13.50
2022-11-30T18:48:39.166Z,13.60
2022-11-30T18:51:13.465Z,12.67
2022-11-30T18:53:41.191Z,13.57
2022-11-30T18:56:10.801Z,11.83
2022-11-30T18:58:39.902Z,13.77
2022-11-30T19:01:09.402Z,13.13
2022-11-30T19:03:38.207Z,14.17
2022-11-30T19:06:07.098Z,11.77
2022-11-30T19:08:35.562Z,14.23
2022-11-30T19:11:05.390Z,13.90
2022-11-30T19:13:33.723Z,12.77
2022-11-30T19:16:08.409Z,14.13
2022-11-30T19:18:36.829Z,13.17
2022-11-30T19:21:08.350Z,12.43
2022-11-30T19:23:36.870Z,13.43
2022-11-30T19:26:05.297Z,13.73
2022-11-30T19:28:34.939Z,12.00
2022-11-30T19:31:09.730Z,11.93
2022-11-30T19:33:38.830Z,13.00
2022-11-30T19:36:08.965Z,12.90
2022-11-30T19:38:36.809Z,11.70
2022-11-30T19:41:06.986Z,12.00
2022-11-30T19:43:34.721Z,14.97
2022-11-30T19:46:06.922Z,12.50
2022-11-30T19:48:36.574Z,13.57
2022-11-30T19:51:06.368Z,15.27
2022-11-30T19:53:34.116Z,12.80
2022-11-30T19:56:05.538Z,12.33
2022-11-30T19:58:33.527Z,13.43
2022-11-30T20:01:02.051Z,14.80
2022-11-30T20:03:30.071Z,14.53
2022-11-30T20:05:59.222Z,13.13
2022-11-30T20:08:27.010Z,12.83
2022-11-30T20:10:54.759Z,11.67
2022-11-30T20:13:22.586Z,11.40
2022-11-30T20:15:50.543Z,12.70
2022-11-30T20:18:18.365Z,12.80
2022-11-30T20:20:46.133Z,11.97
2022-11-30T20:23:15.236Z,11.30
2022-11-30T20:25:42.990Z,12.87
2022-11-30T20:28:12.744Z,12.73
2022-11-30T20:30:40.614Z,11.13
2022-11-30T20:33:08.356Z,12.97
2022-11-30T20:35:36.211Z,12.90
2022-11-30T20:38:04.100Z,10.17
2022-11-30T20:40:33.368Z,11.83
2022-11-30T20:43:01.158Z,13.53
2022-11-30T20:45:28.950Z,12.57
2022-11-30T20:47:56.784Z,11.83
2022-11-30T20:50:24.622Z,12.63
2022-11-30T20:52:52.336Z,13.17
2022-11-30T20:55:20.109Z,11.43
2022-11-30T20:57:49.330Z,13.03
2022-11-30T21:00:18.195Z,11.70
2022-11-30T21:02:45.965Z,11.07
2022-11-30T21:05:13.686Z,10.63
2022-11-30T21:07:41.570Z,12.83
2022-11-30T21:10:10.577Z,10.80
2022-11-30T21:12:38.425Z,12.13
2022-11-30T21:15:08.801Z,12.17
2022-11-30T21:17:36.822Z,12.13
2022-11-30T21:20:05.033Z,11.43
2022-11-30T21:22:32.997Z,12.43
2022-11-30T21:25:00.663Z,13.93
2022-11-30T21:27:28.388Z,12.23
2022-11-30T21:29:56.146Z,11.90
2022-11-30T21:32:25.230Z,12.60
2022-11-30T21:34:52.928Z,11.37
2022-11-30T21:37:20.618Z,12.30
2022-11-30T21:39:48.316Z,12.63
2022-11-30T21:42:16.013Z,11.20
2022-11-30T21:44:43.720Z,14.67
2022-11-30T21:47:13.598Z,11.67
2022-11-30T21:49:42.704Z,13.13
2022-11-30T21:52:10.433Z,11.93
2022-11-30T21:54:38.181Z,11.93
2022-11-30T21:57:05.881Z,12.57
2022-11-30T21:59:33.635Z,13.07
2022-11-30T22:02:01.384Z,12.27
2022-11-30T22:04:29.680Z,11.53
2022-11-30T22:06:58.745Z,12.63
2022-11-30T22:09:26.627Z,11.33
2022-11-30T22:11:55.408Z,12.57
2022-11-30T22:14:23.565Z,11.77
2022-11-30T22:16:51.812Z,12.63
2022-11-30T22:19:20.124Z,12.47
2022-11-30T22:21:50.395Z,10.90
2022-11-30T22:24:19.711Z,13.53
2022-11-30T22:26:48.896Z,11.17
2022-11-30T22:29:18.683Z,12.77
2022-11-30T22:31:48.557Z,12.30
2022-11-30T22:34:16.794Z,12.10
2022-11-30T22:36:46.186Z,11.60
2022-11-30T22:39:15.279Z,12.60
2022-11-30T22:41:45.668Z,12.47
2022-11-30T22:44:14.780Z,11.67
2022-11-30T22:46:44.102Z,11.90
2022-11-30T22:49:19.858Z,13.33
2022-11-30T22:51:48.899Z,12.53
2022-11-30T22:54:16.864Z,10.93
2022-11-30T22:56:47.674Z,14.13
2022-11-30T22:59:16.388Z,13.90
2022-11-30T23:01:45.917Z,12.70
2022-11-30T23:04:15.639Z,11.33
2022-11-30T23:06:47.393Z,11.40
2022-11-30T23:09:16.888Z,11.97
2022-11-30T23:11:46.295Z,12.57
2022-11-30T23:14:16.246Z,11.13
2022-11-30T23:16:45.134Z,13.93
2022-11-30T23:19:13.953Z,11.80
2022-11-30T23:21:44.716Z,11.77
2022-11-30T23:24:20.177Z,10.07
2022-11-30T23:26:49.967Z,11.07
2022-11-30T23:29:18.786Z,12.27
2022-11-30T23:31:47.671Z,12.13
2022-11-30T23:34:16.742Z,12.43
2022-11-30T23:36:45.437Z,12.73
2022-11-30T23:39:14.777Z,12.20
2022-11-30T23:41:43.165Z,9.77
2022-11-30T23:44:17.435Z,11.63
2022-11-30T23:46:45.403Z,10.57
2022-11-30T23:49:14.497Z,12.87
2022-11-30T23:51:44.558Z,11.60
2022-11-30T23:54:12.456Z,10.57
2022-11-30T23:56:40.531Z,10.10
2022-11-30T23:59:08.308Z,12.63
